createdAt,value
2019-02-25T00:01:11.819Z,13.87
2019-02-25T00:03:40.992Z,14.13
2019-02-25T00:06:10.260Z,12.80
2019-02-25T00:08:39.199Z,13.87
2019-02-25T00:11:08.597Z,14.03
2019-02-25T00:13:37.690Z,14.07
2019-02-25T00:16:06.680Z,12.77
2019-02-25T00:18:36.279Z,13.93
2019-02-25T00:21:05.602Z,13.77
2019-02-25T00:23:35.813Z,13.97
2019-02-25T00:26:04.800Z,13.73
2019-02-25T00:28:34.333Z,13.03
2019-02-25T00:31:04.962Z,14.17
2019-02-25T00:33:37.401Z,14.77
2019-02-25T00:36:07.035Z,14.40
2019-02-25T00:38:36.159Z,13.97
2019-02-25T00:41:05.348Z,13.40
2019-02-25T00:43:34.345Z,13.13
2019-02-25T00:46:03.921Z,14.13
2019-02-25T00:48:32.913Z,12.63
2019-02-25T00:51:02.101Z,14.63
2019-02-25T00:53:31.125Z,13.20
2019-02-25T00:56:03.493Z,12.83
2019-02-25T00:58:33.187Z,12.63
2019-02-25T01:01:02.168Z,13.23
2019-02-25T01:03:31.365Z,13.20
2019-02-25T01:06:00.857Z,14.23
2019-02-25T01:08:30.860Z,13.87
2019-02-25T01:11:00.201Z,13.60
2019-02-25T01:13:29.401Z,13.97
2019-02-25T01:15:59.165Z,14.17
2019-02-25T01:18:29.394Z,13.10
2019-02-25T01:20:58.513Z,14.23
2019-02-25T01:23:27.696Z,14.20
2019-02-25T01:25:56.848Z,13.90
2019-02-25T01:28:37.708Z,13.70
2019-02-25T01:31:07.007Z,14.53
2019-02-25T01:33:36.188Z,14.20
2019-02-25T01:36:05.870Z,14.07
2019-02-25T01:38:35.564Z,14.80
2019-02-25T01:41:04.419Z,14.87
2019-02-25T01:43:33.505Z,15.23
2019-02-25T01:46:02.613Z,16.00
2019-02-25T01:48:33.528Z,16.90
2019-02-25T01:51:04.537Z,16.00
2019-02-25T01:53:35.521Z,15.57
2019-02-25T01:56:07.336Z,15.03
2019-02-25T01:58:37.647Z,15.43
2019-02-25T02:01:08.853Z,14.67
2019-02-25T02:03:37.990Z,13.87
2019-02-25T02:06:07.279Z,13.60
2019-02-25T02:08:36.195Z,13.83
2019-02-25T02:11:05.808Z,14.03
2019-02-25T02:13:35.219Z,14.33
2019-02-25T02:16:08.682Z,14.53
2019-02-25T02:18:42.681Z,13.67
2019-02-25T02:21:12.023Z,13.13
2019-02-25T02:23:41.786Z,13.40
2019-02-25T02:26:11.159Z,13.90
2019-02-25T02:28:40.346Z,13.93
2019-02-25T02:31:09.594Z,13.50
2019-02-25T02:33:40.047Z,13.60
2019-02-25T02:36:11.699Z,13.83
2019-02-25T02:38:40.853Z,14.57
2019-02-25T02:41:11.654Z,12.97
2019-02-25T02:43:41.036Z,14.30
2019-02-25T02:46:54.300Z,14.00
2019-02-25T02:49:26.505Z,14.27
2019-02-25T02:51:56.133Z,14.27
2019-02-25T02:54:25.225Z,13.83
2019-02-25T02:56:55.014Z,15.00
2019-02-25T02:59:24.935Z,13.60
2019-02-25T03:01:53.790Z,14.73
2019-02-25T03:04:23.374Z,15.37
2019-02-25T03:06:52.159Z,14.17
2019-02-25T03:09:21.033Z,14.03
2019-02-25T03:11:50.751Z,13.93
2019-02-25T03:14:19.960Z,14.67
2019-02-25T03:16:48.745Z,13.97
2019-02-25T03:19:17.677Z,14.37
2019-02-25T03:21:47.135Z,13.73
2019-02-25T03:24:20.717Z,13.87
2019-02-25T03:26:51.026Z,13.73
2019-02-25T03:29:20.148Z,13.63
2019-02-25T03:31:49.018Z,13.53
2019-02-25T03:34:18.123Z,14.63
2019-02-25T03:36:47.427Z,14.40
2019-02-25T03:39:16.716Z,13.37
2019-02-25T03:41:46.060Z,15.37
2019-02-25T03:44:14.825Z,14.43
2019-02-25T03:46:44.253Z,13.20
2019-02-25T03:49:13.606Z,13.97
2019-02-25T03:51:42.417Z,13.70
2019-02-25T03:54:11.466Z,14.23
2019-02-25T03:56:40.254Z,13.63
2019-02-25T03:59:09.054Z,14.37
2019-02-25T04:01:38.343Z,14.23
2019-02-25T04:04:07.405Z,14.93
2019-02-25T04:06:36.485Z,13.97
2019-02-25T04:09:07.030Z,15.00
2019-02-25T04:11:36.135Z,14.23
2019-02-25T04:14:05.035Z,15.30
2019-02-25T04:16:34.374Z,15.37
2019-02-25T04:19:03.550Z,14.43
2019-02-25T04:21:32.687Z,13.70
2019-02-25T04:24:02.293Z,13.50
2019-02-25T04:26:31.352Z,14.87
2019-02-25T04:29:00.157Z,15.57
2019-02-25T04:31:29.181Z,14.30
2019-02-25T04:33:58.484Z,14.03
2019-02-25T04:36:27.754Z,14.73
2019-02-25T04:38:56.931Z,14.87
2019-02-25T04:41:25.981Z,15.07
2019-02-25T04:43:54.809Z,14.27
2019-02-25T04:46:24.118Z,13.47
2019-02-25T04:48:53.425Z,15.03
2019-02-25T04:51:22.283Z,14.87
2019-02-25T04:53:51.561Z,14.20
2019-02-25T04:56:20.602Z,13.97
2019-02-25T04:58:49.873Z,15.33
2019-02-25T05:01:18.961Z,15.13
2019-02-25T05:03:47.997Z,15.87
2019-02-25T05:06:17.097Z,16.63
2019-02-25T05:08:46.448Z,15.80
2019-02-25T05:11:15.793Z,18.93
2019-02-25T05:13:45.098Z,21.40
2019-02-25T05:16:14.402Z,18.73
2019-02-25T05:18:43.440Z,20.33
2019-02-25T05:21:12.753Z,16.83
2019-02-25T05:23:41.795Z,17.53
2019-02-25T05:26:10.870Z,16.70
2019-02-25T05:28:40.209Z,17.50
2019-02-25T05:31:09.740Z,16.60
2019-02-25T05:33:38.613Z,17.30
2019-02-25T05:36:07.710Z,16.27
2019-02-25T05:38:36.456Z,16.70
2019-02-25T05:41:05.297Z,17.43
2019-02-25T05:43:34.344Z,17.10
2019-02-25T05:46:03.126Z,16.10
2019-02-25T05:48:32.671Z,15.83
2019-02-25T05:51:02.007Z,15.13
2019-02-25T05:53:31.069Z,15.53
2019-02-25T05:55:59.820Z,14.90
2019-02-25T05:58:28.829Z,14.97
2019-02-25T06:00:57.908Z,14.97
2019-02-25T06:03:27.188Z,15.40
2019-02-25T06:05:56.646Z,14.67
2019-02-25T06:08:25.779Z,15.97
2019-02-25T06:10:55.164Z,21.63
2019-02-25T06:13:24.489Z,18.13
2019-02-25T06:15:53.513Z,19.33
2019-02-25T06:18:22.568Z,18.67
2019-02-25T06:20:51.413Z,18.87
2019-02-25T06:23:20.534Z,17.97
2019-02-25T06:25:49.878Z,17.40
2019-02-25T06:28:19.154Z,16.60
2019-02-25T06:30:47.945Z,16.50
2019-02-25T06:33:17.082Z,14.83
2019-02-25T06:35:45.880Z,15.00
2019-02-25T06:38:15.428Z,14.80
2019-02-25T06:40:44.979Z,14.47
2019-02-25T06:43:14.177Z,13.77
2019-02-25T06:45:43.224Z,14.47
2019-02-25T06:48:12.896Z,14.60
2019-02-25T06:50:41.700Z,14.63
2019-02-25T06:53:10.542Z,14.97
2019-02-25T06:55:39.850Z,13.60
2019-02-25T06:58:09.232Z,14.97
2019-02-25T07:00:38.270Z,14.60
2019-02-25T07:03:07.294Z,14.20
2019-02-25T07:05:53.890Z,13.23
2019-02-25T07:08:29.732Z,14.83
2019-02-25T07:11:36.354Z,14.03
2019-02-25T07:14:23.916Z,14.73
2019-02-25T07:17:26.976Z,14.37
2019-02-25T07:20:20.310Z,14.90
2019-02-25T07:23:04.361Z,14.63
2019-02-25T07:25:45.741Z,14.00
2019-02-25T07:28:37.264Z,14.23
2019-02-25T07:31:18.525Z,15.93
2019-02-25T07:34:07.301Z,14.60
2019-02-25T07:36:54.097Z,13.90
2019-02-25T07:39:54.608Z,14.77
2019-02-25T07:42:32.012Z,13.60
2019-02-25T07:45:17.673Z,14.37
2019-02-25T07:48:04.944Z,13.77
2019-02-25T07:50:50.041Z,15.80
2019-02-25T07:53:38.331Z,14.50
2019-02-25T07:56:22.306Z,14.70
2019-02-25T07:59:05.706Z,14.10
2019-02-25T08:01:47.389Z,14.73
2019-02-25T08:04:34.224Z,14.63
2019-02-25T08:07:16.711Z,14.47
2019-02-25T08:10:11.415Z,15.60
2019-02-25T08:12:48.947Z,15.03
2019-02-25T08:15:29.642Z,17.10
2019-02-25T08:18:07.210Z,16.77
2019-02-25T08:20:55.455Z,17.73
2019-02-25T08:23:46.706Z,17.37
2019-02-25T08:26:33.455Z,16.93
2019-02-25T08:29:24.805Z,17.97
2019-02-25T08:32:11.865Z,17.43
2019-02-25T08:34:57.659Z,17.20
2019-02-25T08:37:59.015Z,16.83
2019-02-25T08:40:44.779Z,18.03
2019-02-25T08:43:33.808Z,18.43
2019-02-25T08:46:22.669Z,17.40
2019-02-25T08:48:58.109Z,17.60
2019-02-25T08:51:27.257Z,17.60
2019-02-25T08:53:56.369Z,18.27
2019-02-25T08:56:25.599Z,17.30
2019-02-25T08:58:55.008Z,16.73
2019-02-25T09:01:24.656Z,16.80
2019-02-25T09:03:53.865Z,17.53
2019-02-25T09:06:23.141Z,18.33
2019-02-25T09:08:52.779Z,18.53
2019-02-25T09:11:22.083Z,19.00
2019-02-25T09:13:51.435Z,17.30
2019-02-25T09:16:20.886Z,17.60
2019-02-25T09:18:49.894Z,17.10
2019-02-25T09:21:18.981Z,17.53
2019-02-25T09:23:47.736Z,17.00
2019-02-25T09:26:17.051Z,17.67
2019-02-25T09:28:46.379Z,16.80
2019-02-25T09:31:15.674Z,16.33
2019-02-25T09:33:44.728Z,16.30
2019-02-25T09:36:13.738Z,15.93
2019-02-25T09:38:42.763Z,16.13
2019-02-25T09:41:11.814Z,16.57
2019-02-25T09:43:40.874Z,16.33
2019-02-25T09:46:10.422Z,16.60
2019-02-25T09:48:39.825Z,16.87
2019-02-25T09:51:08.868Z,17.73
2019-02-25T09:53:37.655Z,16.63
2019-02-25T09:56:07.129Z,18.20
2019-02-25T09:58:36.417Z,17.67
2019-02-25T10:01:06.151Z,18.07
2019-02-25T10:03:35.513Z,18.90
2019-02-25T10:06:04.664Z,18.30
2019-02-25T10:08:33.450Z,18.07
2019-02-25T10:11:02.212Z,16.83
2019-02-25T10:13:31.278Z,18.00
2019-02-25T10:16:00.308Z,18.57
2019-02-25T10:18:29.389Z,18.27
2019-02-25T10:20:58.517Z,19.47
2019-02-25T10:23:27.300Z,18.77
2019-02-25T10:25:59.382Z,18.27
2019-02-25T10:28:28.226Z,17.63
2019-02-25T10:30:57.988Z,18.10
2019-02-25T10:33:27.241Z,18.03
2019-02-25T10:35:56.277Z,17.77
2019-02-25T10:38:25.697Z,17.00
2019-02-25T10:40:55.217Z,17.67
2019-02-25T10:43:26.097Z,16.87
2019-02-25T10:45:55.470Z,17.10
2019-02-25T10:48:25.881Z,17.63
2019-02-25T10:50:56.289Z,18.03
2019-02-25T10:53:25.736Z,16.90
2019-02-25T10:56:22.063Z,16.83
2019-02-25T10:58:52.222Z,17.10
2019-02-25T11:01:22.326Z,17.13
2019-02-25T11:03:54.235Z,17.33
2019-02-25T11:06:25.117Z,17.33
2019-02-25T11:09:15.661Z,16.80
2019-02-25T11:11:44.280Z,16.97
2019-02-25T11:14:14.805Z,16.93
2019-02-25T11:16:47.637Z,16.73
2019-02-25T11:19:16.577Z,15.33
2019-02-25T11:21:46.394Z,15.37
2019-02-25T11:24:16.628Z,15.97
2019-02-25T11:26:47.202Z,15.77
2019-02-25T11:29:16.590Z,15.90
2019-02-25T11:31:47.403Z,14.53
2019-02-25T11:34:16.701Z,15.37
2019-02-25T11:36:48.163Z,15.73
2019-02-25T11:39:17.633Z,15.20
2019-02-25T11:41:46.781Z,14.50
2019-02-25T11:44:18.858Z,13.63
2019-02-25T11:46:48.494Z,13.07
2019-02-25T11:49:18.582Z,13.57
2019-02-25T11:51:47.734Z,14.83
2019-02-25T11:54:17.021Z,14.57
2019-02-25T11:56:45.814Z,14.00
2019-02-25T11:59:15.066Z,13.80
2019-02-25T12:01:44.145Z,14.57
2019-02-25T12:04:13.217Z,13.40
2019-02-25T12:06:42.137Z,14.00
2019-02-25T12:09:11.694Z,13.27
2019-02-25T12:11:40.704Z,12.40
2019-02-25T12:14:09.469Z,13.00
2019-02-25T12:16:38.361Z,13.93
2019-02-25T12:19:07.398Z,14.10
2019-02-25T12:21:36.426Z,13.97
2019-02-25T12:24:05.444Z,13.33
2019-02-25T12:26:34.573Z,13.67
2019-02-25T12:29:10.647Z,12.97
2019-02-25T12:31:35.086Z,13.83
2019-02-25T12:34:04.409Z,14.23
2019-02-25T12:36:33.461Z,14.43
2019-02-25T12:39:02.772Z,14.17
2019-02-25T12:41:33.126Z,14.67
2019-02-25T12:44:02.463Z,12.80
2019-02-25T12:46:31.214Z,12.97
2019-02-25T12:49:00.009Z,13.27
2019-02-25T12:51:29.401Z,13.07
2019-02-25T12:53:58.224Z,12.40
2019-02-25T12:56:27.043Z,12.80
2019-02-25T12:58:56.065Z,12.37
2019-02-25T13:01:25.002Z,11.83
2019-02-25T13:03:54.144Z,11.90
2019-02-25T13:06:23.019Z,13.03
2019-02-25T13:08:52.413Z,13.80
2019-02-25T13:11:21.697Z,12.93
2019-02-25T13:13:50.746Z,13.37
2019-02-25T13:16:20.113Z,12.73
2019-02-25T13:18:48.881Z,13.03
2019-02-25T13:21:18.214Z,11.70
2019-02-25T13:23:46.990Z,12.20
2019-02-25T13:26:16.065Z,11.50
2019-02-25T13:28:44.970Z,12.03
2019-02-25T13:31:14.344Z,12.67
2019-02-25T13:33:43.111Z,12.83
2019-02-25T13:36:12.764Z,11.47
2019-02-25T13:38:41.660Z,12.60
2019-02-25T13:41:10.794Z,12.63
2019-02-25T13:43:40.247Z,13.23
2019-02-25T13:46:09.131Z,12.67
2019-02-25T13:48:38.109Z,12.80
2019-02-25T13:51:07.209Z,13.20
2019-02-25T13:53:36.692Z,12.20
2019-02-25T13:56:06.280Z,13.00
2019-02-25T13:58:35.420Z,13.03
2019-02-25T14:01:04.571Z,13.57
2019-02-25T14:03:34.044Z,12.00
2019-02-25T14:06:02.963Z,12.17
2019-02-25T14:08:32.045Z,12.87
2019-02-25T14:11:01.155Z,12.93
2019-02-25T14:13:30.534Z,12.93
2019-02-25T14:15:59.712Z,12.70
2019-02-25T14:18:28.831Z,13.10
2019-02-25T14:20:57.843Z,13.67
2019-02-25T14:23:26.601Z,13.10
2019-02-25T14:25:57.265Z,13.47
2019-02-25T14:28:26.513Z,13.07
2019-02-25T14:30:55.715Z,13.17
2019-02-25T14:33:24.495Z,12.53
2019-02-25T14:35:53.669Z,11.87
2019-02-25T14:38:24.693Z,12.50
2019-02-25T14:40:54.620Z,12.17
2019-02-25T14:43:27.304Z,11.97
2019-02-25T14:45:56.861Z,12.73
2019-02-25T14:48:27.936Z,12.23
2019-02-25T14:50:57.741Z,12.53
2019-02-25T14:53:26.854Z,13.77
2019-02-25T14:55:58.140Z,12.23
2019-02-25T14:58:26.420Z,13.53
2019-02-25T15:00:55.441Z,13.40
2019-02-25T15:03:25.287Z,13.33
2019-02-25T15:05:56.915Z,13.37
2019-02-25T15:08:28.335Z,13.23
2019-02-25T15:11:00.441Z,12.47
2019-02-25T15:13:30.341Z,12.67
2019-02-25T15:15:59.682Z,12.67
2019-02-25T15:18:29.580Z,13.57
2019-02-25T15:21:00.646Z,15.00
2019-02-25T15:23:30.207Z,14.87
2019-02-25T15:26:05.447Z,14.40
2019-02-25T15:28:30.221Z,12.80
2019-02-25T15:31:04.129Z,14.00
2019-02-25T15:33:33.270Z,13.97
2019-02-25T15:36:02.926Z,13.93
2019-02-25T15:38:33.123Z,14.23
2019-02-25T15:41:05.021Z,14.50
2019-02-25T15:43:34.531Z,12.83
2019-02-25T15:46:04.189Z,13.60
2019-02-25T15:48:34.894Z,13.67
2019-02-25T15:51:04.531Z,12.93
2019-02-25T15:53:33.882Z,14.40
2019-02-25T15:56:03.692Z,15.20
2019-02-25T15:58:33.901Z,14.67
2019-02-25T16:01:03.488Z,16.17
2019-02-25T16:03:35.034Z,16.13
2019-02-25T16:06:06.166Z,15.17
2019-02-25T16:08:36.657Z,15.30
2019-02-25T16:11:06.031Z,15.30
2019-02-25T16:13:37.754Z,15.60
2019-02-25T16:16:09.033Z,14.90
2019-02-25T16:18:40.410Z,15.90
2019-02-25T16:21:11.195Z,14.97
2019-02-25T16:23:41.362Z,15.23
2019-02-25T16:26:13.376Z,14.60
2019-02-25T16:28:42.316Z,15.03
2019-02-25T16:31:12.647Z,15.67
2019-02-25T16:33:42.776Z,15.07
2019-02-25T16:36:11.702Z,14.63
2019-02-25T16:38:41.143Z,16.13
2019-02-25T16:41:10.328Z,16.30
2019-02-25T16:43:39.497Z,15.63
2019-02-25T16:46:10.243Z,16.53
2019-02-25T16:48:39.619Z,15.43
2019-02-25T16:51:10.179Z,14.37
2019-02-25T16:53:41.524Z,14.10
2019-02-25T16:56:11.899Z,13.60
2019-02-25T16:58:41.957Z,14.70
2019-02-25T17:01:12.660Z,14.70
2019-02-25T17:03:43.664Z,13.53
2019-02-25T17:06:14.030Z,13.37
2019-02-25T17:08:43.073Z,13.13
2019-02-25T17:11:12.927Z,14.07
2019-02-25T17:13:43.478Z,14.97
2019-02-25T17:16:18.210Z,13.60
2019-02-25T17:18:45.910Z,14.00
2019-02-25T17:21:15.467Z,14.23
2019-02-25T17:23:44.412Z,14.57
2019-02-25T17:26:14.944Z,13.40
2019-02-25T17:28:44.950Z,13.43
2019-02-25T17:31:16.116Z,13.20
2019-02-25T17:33:46.930Z,13.13
2019-02-25T17:36:17.351Z,12.87
2019-02-25T17:38:47.924Z,12.53
2019-02-25T17:41:18.255Z,13.37
2019-02-25T17:43:47.665Z,12.23
2019-02-25T17:46:16.527Z,13.00
2019-02-25T17:48:46.145Z,12.60
2019-02-25T17:51:16.255Z,13.63
2019-02-25T17:53:48.108Z,14.20
2019-02-25T17:56:18.141Z,13.53
2019-02-25T17:58:47.629Z,14.90
2019-02-25T18:01:19.121Z,14.47
2019-02-25T18:03:48.255Z,14.93
2019-02-25T18:06:22.549Z,14.83
2019-02-25T18:08:50.875Z,15.17
2019-02-25T18:11:22.372Z,15.23
2019-02-25T18:13:51.764Z,15.43
2019-02-25T18:16:22.673Z,15.53
2019-02-25T18:18:52.570Z,15.57
2019-02-25T18:21:23.044Z,15.70
2019-02-25T18:23:52.080Z,16.40
2019-02-25T18:26:21.909Z,14.83
2019-02-25T18:28:52.651Z,15.33
2019-02-25T18:31:22.309Z,16.03
2019-02-25T18:33:52.785Z,17.07
2019-02-25T18:36:23.928Z,17.23
2019-02-25T18:38:54.386Z,17.87
2019-02-25T18:41:25.396Z,17.50
2019-02-25T18:43:54.871Z,17.23
2019-02-25T18:46:25.541Z,17.80
2019-02-25T18:48:55.161Z,17.37
2019-02-25T18:51:26.378Z,17.80
2019-02-25T18:53:57.043Z,17.83
2019-02-25T18:56:25.990Z,17.90
2019-02-25T18:59:07.114Z,17.40
2019-02-25T19:01:25.791Z,18.50
2019-02-25T19:03:56.741Z,18.17
2019-02-25T19:06:25.676Z,16.90
2019-02-25T19:08:56.088Z,18.07
2019-02-25T19:11:27.756Z,17.80
2019-02-25T19:13:57.583Z,17.50
2019-02-25T19:16:27.177Z,17.57
2019-02-25T19:18:56.309Z,17.70
2019-02-25T19:21:26.027Z,17.53
2019-02-25T19:23:55.961Z,17.43
2019-02-25T19:26:25.087Z,18.80
2019-02-25T19:28:54.721Z,19.80
2019-02-25T19:31:26.058Z,19.77
2019-02-25T19:33:55.922Z,20.87
2019-02-25T19:36:27.594Z,21.07
2019-02-25T19:38:55.324Z,21.03
2019-02-25T19:41:27.125Z,23.50
2019-02-25T19:43:59.196Z,22.43
2019-02-25T19:46:26.511Z,23.37
2019-02-25T19:48:56.459Z,22.57
2019-02-25T19:51:27.458Z,21.80
2019-02-25T19:53:56.573Z,22.67
2019-02-25T19:56:26.745Z,23.73
2019-02-25T19:58:56.620Z,24.50
2019-02-25T20:01:26.855Z,24.20
2019-02-25T20:03:59.586Z,24.30
2019-02-25T20:06:28.233Z,24.63
2019-02-25T20:08:58.290Z,22.97
2019-02-25T20:11:28.602Z,23.80
2019-02-25T20:14:00.936Z,24.67
2019-02-25T20:16:30.391Z,21.57
2019-02-25T20:19:00.695Z,23.67
2019-02-25T20:21:31.393Z,23.80
2019-02-25T20:24:00.813Z,21.83
2019-02-25T20:26:32.576Z,22.50
2019-02-25T20:29:01.904Z,21.20
2019-02-25T20:31:33.799Z,19.63
2019-02-25T20:34:02.657Z,22.07
2019-02-25T20:36:32.700Z,23.40
2019-02-25T20:39:02.357Z,35.83
2019-02-25T20:41:31.773Z,34.83
2019-02-25T20:44:02.786Z,28.73
2019-02-25T20:46:32.749Z,25.83
2019-02-25T20:49:02.804Z,23.80
2019-02-25T20:51:34.352Z,26.73
2019-02-25T20:54:04.611Z,24.53
2019-02-25T20:56:33.650Z,24.93
2019-02-25T20:59:05.155Z,24.87
2019-02-25T21:01:37.202Z,23.93
2019-02-25T21:04:04.942Z,22.87
2019-02-25T21:06:35.855Z,22.37
2019-02-25T21:09:06.743Z,22.03
2019-02-25T21:11:36.840Z,23.70
2019-02-25T21:14:05.716Z,23.93
2019-02-25T21:16:34.737Z,22.23
2019-02-25T21:19:04.862Z,22.80
2019-02-25T21:21:34.582Z,21.37
2019-02-25T21:24:06.268Z,22.43
2019-02-25T21:26:36.363Z,22.20
2019-02-25T21:29:09.079Z,22.40
2019-02-25T21:31:42.775Z,21.60
2019-02-25T21:34:08.765Z,20.57
2019-02-25T21:36:38.688Z,22.30
2019-02-25T21:39:12.272Z,25.10
2019-02-25T21:41:43.598Z,23.37
2019-02-25T21:44:16.571Z,21.17
2019-02-25T21:46:43.991Z,22.70
2019-02-25T21:49:13.057Z,22.57
2019-02-25T21:51:43.703Z,22.47
2019-02-25T21:54:12.853Z,22.20
2019-02-25T21:56:41.733Z,22.23
2019-02-25T21:59:12.779Z,21.93
2019-02-25T22:01:42.695Z,22.97
2019-02-25T22:04:13.405Z,22.27
2019-02-25T22:06:47.114Z,21.60
2019-02-25T22:09:14.865Z,21.40
2019-02-25T22:11:45.969Z,21.00
2019-02-25T22:14:16.449Z,22.67
2019-02-25T22:16:50.003Z,23.53
2019-02-25T22:19:20.856Z,22.40
2019-02-25T22:21:53.522Z,21.80
2019-02-25T22:24:24.752Z,20.10
2019-02-25T22:26:53.649Z,21.63
2019-02-25T22:29:22.979Z,21.77
2019-02-25T22:31:52.103Z,21.53
2019-02-25T22:34:22.984Z,21.07
2019-02-25T22:36:53.450Z,20.77
2019-02-25T22:39:25.030Z,20.97
2019-02-25T22:41:54.081Z,20.83
2019-02-25T22:44:24.809Z,20.60
2019-02-25T22:46:54.908Z,21.83
2019-02-25T22:49:24.659Z,21.57
2019-02-25T22:51:55.974Z,22.13
2019-02-25T22:54:25.727Z,23.73
2019-02-25T22:56:54.782Z,22.27
2019-02-25T22:59:24.108Z,23.20
2019-02-25T23:01:53.218Z,24.30
2019-02-25T23:04:24.304Z,23.37
2019-02-25T23:06:53.972Z,23.97
2019-02-25T23:09:25.816Z,23.37
2019-02-25T23:11:55.529Z,24.43
2019-02-25T23:14:24.664Z,24.77
2019-02-25T23:16:54.128Z,25.13
2019-02-25T23:19:23.154Z,25.70
2019-02-25T23:21:52.030Z,25.57
2019-02-25T23:24:21.764Z,24.77
2019-02-25T23:26:51.376Z,24.37
2019-02-25T23:29:26.052Z,26.03
2019-02-25T23:31:53.259Z,25.20
2019-02-25T23:34:22.751Z,25.37
2019-02-25T23:36:53.990Z,24.67
2019-02-25T23:39:22.937Z,25.73
2019-02-25T23:41:52.002Z,26.37
2019-02-25T23:44:22.218Z,24.07
2019-02-25T23:46:55.242Z,24.97
2019-02-25T23:49:27.259Z,26.37
2019-02-25T23:51:53.732Z,26.00
2019-02-25T23:54:23.152Z,24.60
2019-02-25T23:56:54.501Z,25.63
2019-02-25T23:59:24.773Z,25.40
